sensor_id;sensor_type;location;lat;lon;timestamp;pressure;altitude;pressure_sealevel;temperature;humidity
23574;BME280;11965;53.640;10.050;2023-05-10T00:02:09;100638.97;;;13.05;55.54
23574;BME280;11965;53.640;10.050;2023-05-10T00:04:37;100643.03;;;13.02;55.97
23574;BME280;11965;53.640;10.050;2023-05-10T00:07:04;100641.97;;;12.97;54.68
23574;BME280;11965;53.640;10.050;2023-05-10T00:09:31;100635.75;;;12.95;55.13
23574;BME280;11965;53.640;10.050;2023-05-10T00:11:58;100627.63;;;12.93;54.58
23574;BME280;11965;53.640;10.050;2023-05-10T00:14:25;100635.56;;;12.90;55.45
23574;BME280;11965;53.640;10.050;2023-05-10T00:16:52;100634.94;;;12.88;55.92
23574;BME280;11965;53.640;10.050;2023-05-10T00:19:21;100624.84;;;12.87;54.97
23574;BME280;11965;53.640;10.050;2023-05-10T00:21:49;100629.59;;;12.79;56.19
23574;BME280;11965;53.640;10.050;2023-05-10T00:24:19;100631.28;;;12.80;55.80
23574;BME280;11965;53.640;10.050;2023-05-10T00:26:46;100620.59;;;12.77;56.18
23574;BME280;11965;53.640;10.050;2023-05-10T00:29:13;100613.13;;;12.71;55.76
23574;BME280;11965;53.640;10.050;2023-05-10T00:31:40;100616.97;;;12.64;56.70
23574;BME280;11965;53.640;10.050;2023-05-10T00:34:06;100618.69;;;12.58;57.67
23574;BME280;11965;53.640;10.050;2023-05-10T00:36:33;100611.41;;;12.50;58.69
23574;BME280;11965;53.640;10.050;2023-05-10T00:39:02;100612.91;;;12.53;57.78
23574;BME280;11965;53.640;10.050;2023-05-10T00:41:29;100617.16;;;12.49;58.21
23574;BME280;11965;53.640;10.050;2023-05-10T00:43:58;100617.19;;;12.55;56.45
23574;BME280;11965;53.640;10.050;2023-05-10T00:46:26;100613.31;;;12.56;57.22
23574;BME280;11965;53.640;10.050;2023-05-10T00:48:53;100611.84;;;12.47;58.33
23574;BME280;11965;53.640;10.050;2023-05-10T00:51:23;100611.81;;;12.41;59.29
23574;BME280;11965;53.640;10.050;2023-05-10T00:53:51;100612.25;;;12.37;58.91
23574;BME280;11965;53.640;10.050;2023-05-10T00:56:20;100613.09;;;12.31;58.88
23574;BME280;11965;53.640;10.050;2023-05-10T00:58:48;100611.78;;;12.27;59.12
23574;BME280;11965;53.640;10.050;2023-05-10T01:01:15;100603.47;;;12.27;58.52
23574;BME280;11965;53.640;10.050;2023-05-10T01:03:42;100606.88;;;12.29;59.20
23574;BME280;11965;53.640;10.050;2023-05-10T01:06:10;100605.59;;;12.32;58.58
23574;BME280;11965;53.640;10.050;2023-05-10T01:08:37;100602.41;;;12.28;58.72
23574;BME280;11965;53.640;10.050;2023-05-10T01:11:04;100593.41;;;12.26;59.47
23574;BME280;11965;53.640;10.050;2023-05-10T01:13:36;100600.69;;;12.21;61.15
23574;BME280;11965;53.640;10.050;2023-05-10T01:16:08;100594.47;;;12.12;60.72
23574;BME280;11965;53.640;10.050;2023-05-10T01:18:38;100586.16;;;12.12;60.38
23574;BME280;11965;53.640;10.050;2023-05-10T01:21:17;100584.63;;;12.16;59.74
23574;BME280;11965;53.640;10.050;2023-05-10T01:24:10;100584.88;;;12.14;59.73
23574;BME280;11965;53.640;10.050;2023-05-10T01:27:12;100597.66;;;12.09;60.54
23574;BME280;11965;53.640;10.050;2023-05-10T01:30:07;100589.75;;;12.06;59.88
23574;BME280;11965;53.640;10.050;2023-05-10T01:32:44;100596.56;;;12.03;59.38
23574;BME280;11965;53.640;10.050;2023-05-10T01:35:17;100598.69;;;11.94;61.59
23574;BME280;11965;53.640;10.050;2023-05-10T01:37:52;100597.44;;;11.90;60.89
23574;BME280;11965;53.640;10.050;2023-05-10T01:40:30;100597.63;;;11.89;61.84
23574;BME280;11965;53.640;10.050;2023-05-10T01:43:03;100602.31;;;11.88;61.03
23574;BME280;11965;53.640;10.050;2023-05-10T01:45:35;100598.91;;;11.86;61.16
23574;BME280;11965;53.640;10.050;2023-05-10T01:48:08;100594.38;;;11.85;61.14
23574;BME280;11965;53.640;10.050;2023-05-10T01:50:38;100593.72;;;11.83;61.44
23574;BME280;11965;53.640;10.050;2023-05-10T01:53:08;100591.16;;;11.82;61.81
23574;BME280;11965;53.640;10.050;2023-05-10T01:55:44;100593.94;;;11.75;62.01
23574;BME280;11965;53.640;10.050;2023-05-10T01:58:15;100586.44;;;11.69;62.06
23574;BME280;11965;53.640;10.050;2023-05-10T02:00:46;100586.44;;;11.69;62.67
23574;BME280;11965;53.640;10.050;2023-05-10T02:03:16;100584.06;;;11.66;62.55
23574;BME280;11965;53.640;10.050;2023-05-10T02:05:48;100588.75;;;11.65;62.74
23574;BME280;11965;53.640;10.050;2023-05-10T02:08:17;100594.72;;;11.62;63.06
23574;BME280;11965;53.640;10.050;2023-05-10T02:10:45;100587.00;;;11.58;63.22
23574;BME280;11965;53.640;10.050;2023-05-10T02:13:16;100583.19;;;11.59;63.02
23574;BME280;11965;53.640;10.050;2023-05-10T02:15:47;100585.50;;;11.55;63.43
23574;BME280;11965;53.640;10.050;2023-05-10T02:18:17;100592.13;;;11.54;62.83
23574;BME280;11965;53.640;10.050;2023-05-10T02:20:45;100584.03;;;11.53;64.18
23574;BME280;11965;53.640;10.050;2023-05-10T02:23:17;100591.88;;;11.42;64.79
23574;BME280;11965;53.640;10.050;2023-05-10T02:25:48;100579.47;;;11.38;65.28
23574;BME280;11965;53.640;10.050;2023-05-10T02:28:17;100593.34;;;11.38;63.38
23574;BME280;11965;53.640;10.050;2023-05-10T02:30:48;100588.44;;;11.40;64.02
23574;BME280;11965;53.640;10.050;2023-05-10T02:33:18;100582.84;;;11.34;65.79
23574;BME280;11965;53.640;10.050;2023-05-10T02:35:46;100589.06;;;11.36;64.94
23574;BME280;11965;53.640;10.050;2023-05-10T02:38:15;100583.09;;;11.32;64.95
23574;BME280;11965;53.640;10.050;2023-05-10T02:40:44;100585.63;;;11.27;65.61
23574;BME280;11965;53.640;10.050;2023-05-10T02:43:14;100574.03;;;11.17;65.96
23574;BME280;11965;53.640;10.050;2023-05-10T02:45:45;100586.38;;;11.14;65.33
23574;BME280;11965;53.640;10.050;2023-05-10T02:48:13;100582.97;;;11.12;65.45
23574;BME280;11965;53.640;10.050;2023-05-10T02:50:44;100572.31;;;11.16;65.92
23574;BME280;11965;53.640;10.050;2023-05-10T02:53:16;100574.84;;;11.11;65.73
23574;BME280;11965;53.640;10.050;2023-05-10T02:55:50;100576.13;;;11.08;67.09
23574;BME280;11965;53.640;10.050;2023-05-10T02:58:18;100579.31;;;11.05;67.03
23574;BME280;11965;53.640;10.050;2023-05-10T03:00:46;100572.44;;;11.01;67.02
23574;BME280;11965;53.640;10.050;2023-05-10T03:03:13;100584.16;;;10.96;67.71
23574;BME280;11965;53.640;10.050;2023-05-10T03:05:40;100571.34;;;10.95;67.25
23574;BME280;11965;53.640;10.050;2023-05-10T03:08:08;100573.94;;;10.97;66.89
23574;BME280;11965;53.640;10.050;2023-05-10T03:10:47;100576.22;;;10.93;67.80
23574;BME280;11965;53.640;10.050;2023-05-10T03:13:31;100573.25;;;10.88;67.88
23574;BME280;11965;53.640;10.050;2023-05-10T03:16:11;100572.41;;;10.94;68.05
23574;BME280;11965;53.640;10.050;2023-05-10T03:18:44;100575.38;;;10.93;68.93
23574;BME280;11965;53.640;10.050;2023-05-10T03:21:18;100563.59;;;10.84;68.31
23574;BME280;11965;53.640;10.050;2023-05-10T03:23:59;100576.66;;;10.90;67.78
23574;BME280;11965;53.640;10.050;2023-05-10T03:26:30;100575.13;;;10.88;68.60
23574;BME280;11965;53.640;10.050;2023-05-10T03:29:13;100566.63;;;10.89;68.60
23574;BME280;11965;53.640;10.050;2023-05-10T03:31:41;100571.94;;;10.91;68.96
23574;BME280;11965;53.640;10.050;2023-05-10T03:34:08;100571.81;;;10.99;66.52
23574;BME280;11965;53.640;10.050;2023-05-10T03:36:36;100571.75;;;10.92;66.96
23574;BME280;11965;53.640;10.050;2023-05-10T03:39:04;100576.47;;;10.98;67.58
23574;BME280;11965;53.640;10.050;2023-05-10T03:41:31;100576.91;;;10.95;67.96
23574;BME280;11965;53.640;10.050;2023-05-10T03:43:58;100570.06;;;10.91;68.86
23574;BME280;11965;53.640;10.050;2023-05-10T03:46:24;100572.84;;;10.91;67.64
23574;BME280;11965;53.640;10.050;2023-05-10T03:48:52;100573.88;;;10.90;69.94
23574;BME280;11965;53.640;10.050;2023-05-10T03:51:18;100567.91;;;10.93;70.03
23574;BME280;11965;53.640;10.050;2023-05-10T03:53:45;100565.81;;;10.95;67.95
23574;BME280;11965;53.640;10.050;2023-05-10T03:56:14;100572.00;;;10.97;69.22
23574;BME280;11965;53.640;10.050;2023-05-10T03:58:41;100566.03;;;11.00;69.19
23574;BME280;11965;53.640;10.050;2023-05-10T04:01:09;100572.03;;;11.04;69.32
23574;BME280;11965;53.640;10.050;2023-05-10T04:03:36;100572.09;;;11.11;67.81
23574;BME280;11965;53.640;10.050;2023-05-10T04:06:05;100568.25;;;11.12;68.82
23574;BME280;11965;53.640;10.050;2023-05-10T04:08:33;100568.47;;;11.10;68.94
23574;BME280;11965;53.640;10.050;2023-05-10T04:11:07;100571.66;;;11.14;67.89
23574;BME280;11965;53.640;10.050;2023-05-10T04:13:36;100569.75;;;11.14;69.71
23574;BME280;11965;53.640;10.050;2023-05-10T04:16:04;100571.25;;;11.17;68.90
23574;BME280;11965;53.640;10.050;2023-05-10T04:18:31;100569.13;;;11.19;68.31
23574;BME280;11965;53.640;10.050;2023-05-10T04:20:58;100556.56;;;11.23;67.49
23574;BME280;11965;53.640;10.050;2023-05-10T04:23:24;100564.09;;;11.36;67.75
23574;BME280;11965;53.640;10.050;2023-05-10T04:25:52;100567.50;;;11.31;69.59
23574;BME280;11965;53.640;10.050;2023-05-10T04:28:19;100568.78;;;11.35;67.75
23574;BME280;11965;53.640;10.050;2023-05-10T04:30:48;100569.88;;;11.41;68.06
23574;BME280;11965;53.640;10.050;2023-05-10T04:33:15;100570.31;;;11.44;67.97
23574;BME280;11965;53.640;10.050;2023-05-10T04:35:42;100561.38;;;11.49;67.09
23574;BME280;11965;53.640;10.050;2023-05-10T04:38:10;100570.78;;;11.48;67.34
23574;BME280;11965;53.640;10.050;2023-05-10T04:40:36;100567.56;;;11.51;68.58
23574;BME280;11965;53.640;10.050;2023-05-10T04:43:03;100561.84;;;11.53;67.70
23574;BME280;11965;53.640;10.050;2023-05-10T04:45:30;100563.34;;;11.62;67.92
23574;BME280;11965;53.640;10.050;2023-05-10T04:47:58;100563.97;;;11.57;67.71
23574;BME280;11965;53.640;10.050;2023-05-10T04:50:27;100571.66;;;11.62;69.05
23574;BME280;11965;53.640;10.050;2023-05-10T04:52:54;100573.81;;;11.66;68.11
23574;BME280;11965;53.640;10.050;2023-05-10T04:55:21;100572.13;;;11.72;65.91
23574;BME280;11965;53.640;10.050;2023-05-10T04:57:48;100569.13;;;11.73;68.45
23574;BME280;11965;53.640;10.050;2023-05-10T05:00:15;100571.53;;;11.83;67.07
23574;BME280;11965;53.640;10.050;2023-05-10T05:02:43;100572.19;;;11.92;66.48
23574;BME280;11965;53.640;10.050;2023-05-10T05:05:12;100566.69;;;12.05;67.84
23574;BME280;11965;53.640;10.050;2023-05-10T05:07:39;100564.31;;;12.09;66.52
23574;BME280;11965;53.640;10.050;2023-05-10T05:10:07;100563.28;;;12.36;66.76
23574;BME280;11965;53.640;10.050;2023-05-10T05:12:35;100568.84;;;12.36;65.23
23574;BME280;11965;53.640;10.050;2023-05-10T05:15:02;100562.88;;;12.40;64.80
23574;BME280;11965;53.640;10.050;2023-05-10T05:17:30;100565.22;;;12.49;64.33
23574;BME280;11965;53.640;10.050;2023-05-10T05:20:00;100559.88;;;12.48;63.56
23574;BME280;11965;53.640;10.050;2023-05-10T05:22:28;100561.78;;;12.60;64.22
23574;BME280;11965;53.640;10.050;2023-05-10T05:24:55;100559.81;;;12.81;64.04
23574;BME280;11965;53.640;10.050;2023-05-10T05:27:23;100564.09;;;12.83;64.33
23574;BME280;11965;53.640;10.050;2023-05-10T05:29:53;100567.94;;;12.89;63.09
23574;BME280;11965;53.640;10.050;2023-05-10T05:32:20;100574.34;;;12.96;64.55
23574;BME280;11965;53.640;10.050;2023-05-10T05:34:48;100569.41;;;13.05;64.83
23574;BME280;11965;53.640;10.050;2023-05-10T05:37:15;100578.59;;;13.05;61.97
23574;BME280;11965;53.640;10.050;2023-05-10T05:39:43;100583.72;;;13.15;63.48
23574;BME280;11965;53.640;10.050;2023-05-10T05:42:12;100576.00;;;13.17;63.64
23574;BME280;11965;53.640;10.050;2023-05-10T05:44:39;100570.41;;;13.24;61.56
23574;BME280;11965;53.640;10.050;2023-05-10T05:47:06;100567.81;;;13.42;61.19
23574;BME280;11965;53.640;10.050;2023-05-10T05:49:33;100576.56;;;13.53;60.68
23574;BME280;11965;53.640;10.050;2023-05-10T05:52:00;100575.66;;;13.59;60.11
23574;BME280;11965;53.640;10.050;2023-05-10T05:54:28;100576.34;;;13.54;59.13
23574;BME280;11965;53.640;10.050;2023-05-10T05:56:56;100570.88;;;13.73;59.47
23574;BME280;11965;53.640;10.050;2023-05-10T05:59:24;100576.44;;;13.79;59.38
23574;BME280;11965;53.640;10.050;2023-05-10T06:01:51;100571.34;;;14.08;60.75
23574;BME280;11965;53.640;10.050;2023-05-10T06:04:18;100564.47;;;14.10;57.58
23574;BME280;11965;53.640;10.050;2023-05-10T06:06:45;100569.63;;;14.07;58.67
23574;BME280;11965;53.640;10.050;2023-05-10T06:09:12;100564.47;;;14.10;58.98
23574;BME280;11965;53.640;10.050;2023-05-10T06:11:39;100568.50;;;14.14;56.52
23574;BME280;11965;53.640;10.050;2023-05-10T06:14:08;100573.06;;;14.34;59.30
23574;BME280;11965;53.640;10.050;2023-05-10T06:16:35;100568.22;;;14.48;57.31
23574;BME280;11965;53.640;10.050;2023-05-10T06:19:02;100565.13;;;14.63;57.95
23574;BME280;11965;53.640;10.050;2023-05-10T06:21:29;100577.94;;;14.70;56.52
23574;BME280;11965;53.640;10.050;2023-05-10T06:23:56;100568.28;;;14.73;58.19
23574;BME280;11965;53.640;10.050;2023-05-10T06:26:23;100576.81;;;14.78;55.86
23574;BME280;11965;53.640;10.050;2023-05-10T06:28:50;100570.81;;;14.74;55.21
23574;BME280;11965;53.640;10.050;2023-05-10T06:31:18;100572.06;;;14.78;55.89
23574;BME280;11965;53.640;10.050;2023-05-10T06:33:45;100574.41;;;14.82;56.54
23574;BME280;11965;53.640;10.050;2023-05-10T06:36:12;100572.00;;;14.85;56.08
23574;BME280;11965;53.640;10.050;2023-05-10T06:38:39;100583.75;;;14.69;57.09
23574;BME280;11965;53.640;10.050;2023-05-10T06:41:06;100580.59;;;14.58;55.41
23574;BME280;11965;53.640;10.050;2023-05-10T06:43:33;100586.94;;;14.72;56.10
23574;BME280;11965;53.640;10.050;2023-05-10T06:46:00;100595.25;;;14.79;57.52
23574;BME280;11965;53.640;10.050;2023-05-10T06:48:28;100585.47;;;15.13;56.34
23574;BME280;11965;53.640;10.050;2023-05-10T06:50:55;100585.22;;;15.52;53.60
23574;BME280;11965;53.640;10.050;2023-05-10T06:53:22;100588.81;;;15.40;54.35
23574;BME280;11965;53.640;10.050;2023-05-10T06:55:49;100590.34;;;15.36;55.01
23574;BME280;11965;53.640;10.050;2023-05-10T06:58:16;100582.97;;;15.60;54.99
23574;BME280;11965;53.640;10.050;2023-05-10T07:00:43;100581.28;;;15.41;54.89
23574;BME280;11965;53.640;10.050;2023-05-10T07:03:11;100588.28;;;15.32;54.03
23574;BME280;11965;53.640;10.050;2023-05-10T07:05:39;100598.97;;;15.53;54.37
23574;BME280;11965;53.640;10.050;2023-05-10T07:08:06;100592.53;;;15.71;54.75
23574;BME280;11965;53.640;10.050;2023-05-10T07:10:33;100584.91;;;16.08;53.00
23574;BME280;11965;53.640;10.050;2023-05-10T07:12:59;100588.69;;;15.84;53.98
23574;BME280;11965;53.640;10.050;2023-05-10T07:15:26;100586.84;;;15.41;53.89
23574;BME280;11965;53.640;10.050;2023-05-10T07:17:54;100592.75;;;15.51;54.19
23574;BME280;11965;53.640;10.050;2023-05-10T07:20:20;100595.69;;;15.56;53.07
23574;BME280;11965;53.640;10.050;2023-05-10T07:22:49;100589.50;;;15.54;54.52
23574;BME280;11965;53.640;10.050;2023-05-10T07:25:16;100599.50;;;15.62;56.38
23574;BME280;11965;53.640;10.050;2023-05-10T07:27:43;100593.66;;;15.82;52.34
23574;BME280;11965;53.640;10.050;2023-05-10T07:30:10;100595.59;;;16.00;53.79
23574;BME280;11965;53.640;10.050;2023-05-10T07:32:37;100603.63;;;16.08;53.86
23574;BME280;11965;53.640;10.050;2023-05-10T07:35:05;100597.41;;;16.06;53.69
23574;BME280;11965;53.640;10.050;2023-05-10T07:37:32;100601.34;;;16.17;53.09
23574;BME280;11965;53.640;10.050;2023-05-10T07:40:00;100605.41;;;16.32;52.55
23574;BME280;11965;53.640;10.050;2023-05-10T07:42:27;100597.44;;;16.48;53.79
23574;BME280;11965;53.640;10.050;2023-05-10T07:44:54;100597.38;;;16.78;53.30
23574;BME280;11965;53.640;10.050;2023-05-10T07:47:21;100598.69;;;16.64;52.61
23574;BME280;11965;53.640;10.050;2023-05-10T07:49:47;100598.69;;;16.75;54.01
23574;BME280;11965;53.640;10.050;2023-05-10T07:52:14;100593.94;;;16.64;52.18
23574;BME280;11965;53.640;10.050;2023-05-10T07:54:41;100603.66;;;16.73;51.44
23574;BME280;11965;53.640;10.050;2023-05-10T07:57:09;100600.31;;;16.95;50.95
23574;BME280;11965;53.640;10.050;2023-05-10T07:59:36;100603.59;;;16.92;49.18
23574;BME280;11965;53.640;10.050;2023-05-10T08:02:03;100595.94;;;17.22;52.97
23574;BME280;11965;53.640;10.050;2023-05-10T08:04:30;100596.09;;;17.56;49.90
23574;BME280;11965;53.640;10.050;2023-05-10T08:06:57;100600.19;;;17.37;49.33
23574;BME280;11965;53.640;10.050;2023-05-10T08:09:24;100604.34;;;17.11;50.45
23574;BME280;11965;53.640;10.050;2023-05-10T08:11:51;100609.22;;;17.15;50.91
23574;BME280;11965;53.640;10.050;2023-05-10T08:14:20;100606.25;;;17.22;52.57
23574;BME280;11965;53.640;10.050;2023-05-10T08:16:47;100616.50;;;17.40;51.53
23574;BME280;11965;53.640;10.050;2023-05-10T08:19:13;100611.69;;;17.64;50.58
23574;BME280;11965;53.640;10.050;2023-05-10T08:21:44;100613.19;;;17.43;50.51
23574;BME280;11965;53.640;10.050;2023-05-10T08:24:11;100618.91;;;17.48;49.72
23574;BME280;11965;53.640;10.050;2023-05-10T08:26:38;100618.69;;;17.38;51.74
23574;BME280;11965;53.640;10.050;2023-05-10T08:29:05;100619.91;;;16.83;51.16
23574;BME280;11965;53.640;10.050;2023-05-10T08:31:33;100620.47;;;16.73;51.15
23574;BME280;11965;53.640;10.050;2023-05-10T08:34:00;100624.41;;;16.84;53.24
23574;BME280;11965;53.640;10.050;2023-05-10T08:36:27;100628.13;;;16.66;53.01
23574;BME280;11965;53.640;10.050;2023-05-10T08:38:54;100630.25;;;16.83;52.38
23574;BME280;11965;53.640;10.050;2023-05-10T08:41:22;100624.84;;;16.69;51.12
23574;BME280;11965;53.640;10.050;2023-05-10T08:43:52;100627.34;;;17.25;51.96
23574;BME280;11965;53.640;10.050;2023-05-10T08:46:21;100627.97;;;17.15;52.27
23574;BME280;11965;53.640;10.050;2023-05-10T08:48:51;100627.31;;;17.48;49.52
23574;BME280;11965;53.640;10.050;2023-05-10T08:51:20;100629.94;;;17.90;49.57
23574;BME280;11965;53.640;10.050;2023-05-10T08:53:49;100634.94;;;17.76;50.48
23574;BME280;11965;53.640;10.050;2023-05-10T08:56:16;100638.19;;;17.44;51.63
23574;BME280;11965;53.640;10.050;2023-05-10T08:58:45;100639.34;;;17.72;53.62
23574;BME280;11965;53.640;10.050;2023-05-10T09:01:13;100643.56;;;17.98;48.74
23574;BME280;11965;53.640;10.050;2023-05-10T09:03:43;100649.91;;;17.94;50.06
23574;BME280;11965;53.640;10.050;2023-05-10T09:06:14;100651.03;;;18.21;48.76
23574;BME280;11965;53.640;10.050;2023-05-10T09:08:42;100656.81;;;18.15;48.13
23574;BME280;11965;53.640;10.050;2023-05-10T09:11:11;100643.72;;;18.49;46.33
23574;BME280;11965;53.640;10.050;2023-05-10T09:13:38;100647.44;;;18.09;50.68
23574;BME280;11965;53.640;10.050;2023-05-10T09:16:06;100656.13;;;17.96;50.58
23574;BME280;11965;53.640;10.050;2023-05-10T09:18:33;100653.25;;;18.19;48.26
23574;BME280;11965;53.640;10.050;2023-05-10T09:21:00;100663.22;;;18.27;47.18
23574;BME280;11965;53.640;10.050;2023-05-10T09:23:28;100660.28;;;17.93;50.48
23574;BME280;11965;53.640;10.050;2023-05-10T09:26:04;100669.16;;;17.78;51.13
23574;BME280;11965;53.640;10.050;2023-05-10T09:28:32;100668.84;;;17.51;49.65
23574;BME280;11965;53.640;10.050;2023-05-10T09:30:59;100674.09;;;17.48;51.97
23574;BME280;11965;53.640;10.050;2023-05-10T09:33:26;100666.41;;;17.43;52.09
23574;BME280;11965;53.640;10.050;2023-05-10T09:35:53;100675.69;;;17.32;55.25
23574;BME280;11965;53.640;10.050;2023-05-10T09:38:20;100673.84;;;17.37;53.87
23574;BME280;11965;53.640;10.050;2023-05-10T09:40:52;100685.19;;;17.19;53.33
23574;BME280;11965;53.640;10.050;2023-05-10T09:43:20;100683.75;;;17.28;53.62
23574;BME280;11965;53.640;10.050;2023-05-10T09:45:48;100686.66;;;17.21;54.37
23574;BME280;11965;53.640;10.050;2023-05-10T09:48:16;100692.72;;;17.18;56.42
23574;BME280;11965;53.640;10.050;2023-05-10T09:50:43;100692.47;;;17.43;53.58
23574;BME280;11965;53.640;10.050;2023-05-10T09:53:14;100681.16;;;17.27;54.45
23574;BME280;11965;53.640;10.050;2023-05-10T09:55:43;100678.47;;;17.67;55.01
23574;BME280;11965;53.640;10.050;2023-05-10T09:58:13;100685.91;;;17.61;57.39
23574;BME280;11965;53.640;10.050;2023-05-10T10:00:42;100688.47;;;17.63;54.45
23574;BME280;11965;53.640;10.050;2023-05-10T10:03:13;100692.84;;;17.59;54.00
23574;BME280;11965;53.640;10.050;2023-05-10T10:05:41;100698.97;;;17.44;52.86
23574;BME280;11965;53.640;10.050;2023-05-10T10:08:10;100704.91;;;17.12;57.00
23574;BME280;11965;53.640;10.050;2023-05-10T10:10:37;100705.63;;;16.96;56.84
23574;BME280;11965;53.640;10.050;2023-05-10T10:13:06;100716.19;;;16.82;61.99
23574;BME280;11965;53.640;10.050;2023-05-10T10:15:34;100712.66;;;16.26;61.02
23574;BME280;11965;53.640;10.050;2023-05-10T10:18:02;100717.31;;;15.96;64.91
23574;BME280;11965;53.640;10.050;2023-05-10T10:20:30;100728.06;;;15.80;72.01
23574;BME280;11965;53.640;10.050;2023-05-10T10:22:57;100725.41;;;15.42;74.80
23574;BME280;11965;53.640;10.050;2023-05-10T10:25:25;100744.88;;;14.73;85.95
23574;BME280;11965;53.640;10.050;2023-05-10T10:28:09;100746.50;;;14.49;91.63
23574;BME280;11965;53.640;10.050;2023-05-10T10:30:43;100747.84;;;14.40;96.00
23574;BME280;11965;53.640;10.050;2023-05-10T10:33:30;100754.78;;;14.18;97.99
23574;BME280;11965;53.640;10.050;2023-05-10T10:36:03;100749.50;;;13.96;99.19
23574;BME280;11965;53.640;10.050;2023-05-10T10:38:37;100746.75;;;13.83;100.00
23574;BME280;11965;53.640;10.050;2023-05-10T10:41:30;100756.69;;;13.52;100.00
23574;BME280;11965;53.640;10.050;2023-05-10T10:44:25;100751.34;;;13.57;100.00
23574;BME280;11965;53.640;10.050;2023-05-10T10:47:21;100754.03;;;13.90;100.00
23574;BME280;11965;53.640;10.050;2023-05-10T10:49:51;100759.66;;;13.70;100.00
23574;BME280;11965;53.640;10.050;2023-05-10T10:52:23;100767.34;;;13.75;100.00
23574;BME280;11965;53.640;10.050;2023-05-10T10:54:54;100765.63;;;13.81;100.00
23574;BME280;11965;53.640;10.050;2023-05-10T10:57:24;100766.03;;;13.91;100.00
23574;BME280;11965;53.640;10.050;2023-05-10T10:59:53;100766.66;;;14.00;100.00
23574;BME280;11965;53.640;10.050;2023-05-10T11:02:34;100776.81;;;13.67;100.00
23574;BME280;11965;53.640;10.050;2023-05-10T11:08:18;100776.84;;;13.54;100.00
23574;BME280;11965;53.640;10.050;2023-05-10T11:10:52;100773.81;;;13.56;100.00
23574;BME280;11965;53.640;10.050;2023-05-10T11:13:28;100782.41;;;13.54;100.00
23574;BME280;11965;53.640;10.050;2023-05-10T11:15:56;100783.66;;;13.58;100.00
23574;BME280;11965;53.640;10.050;2023-05-10T11:18:27;100783.22;;;13.61;100.00
23574;BME280;11965;53.640;10.050;2023-05-10T11:20:58;100786.41;;;13.85;100.00
23574;BME280;11965;53.640;10.050;2023-05-10T11:23:31;100787.88;;;13.94;100.00
23574;BME280;11965;53.640;10.050;2023-05-10T11:25:59;100786.53;;;14.10;100.00
23574;BME280;11965;53.640;10.050;2023-05-10T11:28:27;100792.75;;;14.19;100.00
23574;BME280;11965;53.640;10.050;2023-05-10T11:30:54;100792.88;;;14.37;100.00
23574;BME280;11965;53.640;10.050;2023-05-10T11:33:21;100803.16;;;14.36;100.00
23574;BME280;11965;53.640;10.050;2023-05-10T11:35:49;100798.69;;;14.35;100.00
23574;BME280;11965;53.640;10.050;2023-05-10T11:38:16;100792.78;;;14.05;100.00
23574;BME280;11965;53.640;10.050;2023-05-10T11:40:43;100795.34;;;14.07;100.00
23574;BME280;11965;53.640;10.050;2023-05-10T11:43:11;100797.28;;;14.06;100.00
23574;BME280;11965;53.640;10.050;2023-05-10T11:45:38;100788.28;;;14.04;100.00
23574;BME280;11965;53.640;10.050;2023-05-10T11:48:07;100801.53;;;14.15;100.00
23574;BME280;11965;53.640;10.050;2023-05-10T11:50:34;100802.44;;;14.03;100.00
23574;BME280;11965;53.640;10.050;2023-05-10T11:53:02;100799.81;;;14.21;100.00
23574;BME280;11965;53.640;10.050;2023-05-10T11:55:33;100804.50;;;14.21;100.00
23574;BME280;11965;53.640;10.050;2023-05-10T11:58:01;100812.84;;;14.34;100.00
23574;BME280;11965;53.640;10.050;2023-05-10T12:00:30;100805.69;;;14.58;100.00
23574;BME280;11965;53.640;10.050;2023-05-10T12:02:57;100818.13;;;14.55;100.00
23574;BME280;11965;53.640;10.050;2023-05-10T12:05:25;100818.34;;;14.47;100.00
23574;BME280;11965;53.640;10.050;2023-05-10T12:07:52;100819.84;;;14.50;100.00
23574;BME280;11965;53.640;10.050;2023-05-10T12:10:26;100819.16;;;14.68;100.00
23574;BME280;11965;53.640;10.050;2023-05-10T12:12:53;100823.19;;;14.72;100.00
23574;BME280;11965;53.640;10.050;2023-05-10T12:15:22;100824.03;;;14.79;100.00
23574;BME280;11965;53.640;10.050;2023-05-10T12:17:50;100828.22;;;14.56;100.00
23574;BME280;11965;53.640;10.050;2023-05-10T12:20:19;100833.59;;;14.45;100.00
23574;BME280;11965;53.640;10.050;2023-05-10T12:22:50;100832.47;;;14.66;100.00
23574;BME280;11965;53.640;10.050;2023-05-10T12:25:18;100838.56;;;14.36;100.00
23574;BME280;11965;53.640;10.050;2023-05-10T12:27:51;100833.19;;;14.41;100.00
23574;BME280;11965;53.640;10.050;2023-05-10T12:30:22;100836.03;;;14.28;100.00
23574;BME280;11965;53.640;10.050;2023-05-10T12:32:49;100842.78;;;14.65;100.00
23574;BME280;11965;53.640;10.050;2023-05-10T12:35:17;100843.47;;;14.54;100.00
23574;BME280;11965;53.640;10.050;2023-05-10T12:37:47;100839.59;;;14.55;100.00
23574;BME280;11965;53.640;10.050;2023-05-10T12:40:15;100847.69;;;14.70;100.00
23574;BME280;11965;53.640;10.050;2023-05-10T12:42:42;100852.38;;;14.76;100.00
23574;BME280;11965;53.640;10.050;2023-05-10T12:45:12;100845.88;;;14.89;100.00
23574;BME280;11965;53.640;10.050;2023-05-10T12:47:39;100851.84;;;14.92;100.00
23574;BME280;11965;53.640;10.050;2023-05-10T12:50:09;100854.00;;;14.97;100.00
23574;BME280;11965;53.640;10.050;2023-05-10T12:52:36;100860.97;;;15.13;100.00